SVMIMDLR

Guest
Details From SVMI - Caracas Simon Bolivar Intl
To MDLR - La Romana Casa De Campo Intl
Flight Number -
Tags decoded
Created
Modified
Stats Distance 486 nm / 900 km
Max Altitude 0 ft / 0 m
Waypoints 8
Social Downloads 3
Likes 0
Share VATSIM

Download

Looking for another format? Having issues loading an existing format? Contact us
Advertisement - Login to hide

Notes

Requested: SVMI UA554 PULPO BELLO KABON BEXER POKAK UT4 ALEVI MDLR Unmatched points: UA554 UT4

Route

SVMI PULPO BELLO KABON BEXER POKAK ALEVI MDLR

ID Type Via Altitude Latitude Longitude Leg Dist Tot Dist Heading (true) Name
O SVMI APT - 0 ft / 0 m 10.60312˚ -66.99059˚ - 0 nm - Caracas Simon Bolivar Intl
PULPO FIX - 0 ft / 0 m 11.31000˚ -67.22028˚ 44 nm 44 nm 342° / 342° -
BELLO FIX - 0 ft / 0 m 12.02389˚ -67.44917˚ 44 nm 89 nm 343° / 343° -
KABON FIX - 0 ft / 0 m 12.74594˚ -67.68953˚ 45 nm 135 nm 342° / 342° -
BEXER FIX - 0 ft / 0 m 14.19422˚ -68.18786˚ 91 nm 226 nm 342° / 341° -
POKAK FIX - 0 ft / 0 m 16.00000˚ -68.56667˚ 110 nm 337 nm 349° / 349° -
ALEVI FIX - 0 ft / 0 m 18.15861˚ -68.82056˚ 130 nm 467 nm 354° / 354° -
O MDLR APT - 0 ft / 0 m 18.45071˚ -68.91183˚ 18 nm 486 nm 343° / 343° La Romana Casa De Campo Intl

Altitude Profile

Advertisement - Login to hide

Weather


0- 5 10 15 20 25 30 35+ Temperature / ° C

Clouds and Precipitation
Forecast for 2018-05-23 18:00 UTC. Updated 6 hours ago

Ground ~20,000 ft ~40,000 ft Winds

SVMI

Details ICAO SVMI (CCS)
Name Caracas Simon Bolivar Intl
Region Venezuela
Timezone America/Caracas (UTC-4.0)
Stats Elevation 235 ft / 72 m (AMSL)
Location 10.603119° -66.990585°
Runways 2
Magnetic Variation 12.328° W

METAR

SVMI 232200Z 09004KT 9999 BKN013 27/24 Q1010

Decode

TAF

Not found

Departure Runways

ID Width Length Bearing (true) Bearing (mag) Surface Threshold Offset Overrun Length
09 145 ft / 44 m 9,825 ft / 2,995 m 75.92° 88.25° Asphalt 0 ft / 0 m 0 ft / 0 m
10 148 ft / 45 m 11,472 ft / 3,497 m 88.14° 100.47° Asphalt 0 ft / 0 m 200 ft / 61 m
27 145 ft / 44 m 9,825 ft / 2,995 m 255.92° 268.25° Asphalt 0 ft / 0 m 0 ft / 0 m
28 148 ft / 45 m 11,472 ft / 3,497 m 268.15° 280.48° Asphalt 0 ft / 0 m 200 ft / 61 m

MDLR

Details ICAO MDLR (LRM)
Name La Romana Casa De Campo Intl
Region Dominican Republic
Timezone America/Santo_Domingo (UTC-4.0)
Stats Elevation 238 ft / 73 m (AMSL)
Location 18.450713° -68.911834°
Runways 1
Magnetic Variation 11.938° W

METAR

MDLR 232200Z 11010KT 9999 FEW020 BKN300 29/22 Q1017

Decode

TAF

Not found

Destination Runways

ID Width Length Bearing (true) Bearing (mag) Surface Threshold Offset Overrun Length
11 148 ft / 45 m 9,666 ft / 2,946 m 97.07° 109.01° Concrete 0 ft / 0 m 200 ft / 61 m
29 148 ft / 45 m 9,666 ft / 2,946 m 277.08° 289.02° Concrete 0 ft / 0 m 200 ft / 61 m

Popular Alternatives